createdAt,value
2022-12-01T00:00:20.730Z,99863.83
2022-12-01T00:02:51.685Z,99866.00
2022-12-01T00:05:22.805Z,99865.98
2022-12-01T00:07:53.479Z,99863.23
2022-12-01T00:10:27.068Z,99859.77
2022-12-01T00:12:58.992Z,99855.74
2022-12-01T00:15:31.610Z,99856.23
2022-12-01T00:18:02.827Z,99857.14
2022-12-01T00:20:36.043Z,99856.48
2022-12-01T00:23:06.703Z,99853.77
2022-12-01T00:25:37.582Z,99854.16
2022-12-01T00:28:08.884Z,99854.33
2022-12-01T00:30:39.908Z,99854.66
2022-12-01T00:33:10.778Z,99851.41
2022-12-01T00:35:41.586Z,99851.50
2022-12-01T00:38:12.315Z,99849.57
2022-12-01T00:40:43.380Z,99854.67
2022-12-01T00:43:14.210Z,99854.17
2022-12-01T00:45:45.299Z,99863.52
2022-12-01T00:48:16.197Z,99860.46
2022-12-01T00:50:47.215Z,99860.27
2022-12-01T00:53:17.842Z,99863.20
2022-12-01T00:55:48.613Z,99865.35
2022-12-01T00:58:19.351Z,99864.11
2022-12-01T01:00:50.635Z,99864.30
2022-12-01T01:03:21.410Z,99862.25
2022-12-01T01:05:52.234Z,99859.80
2022-12-01T01:08:23.020Z,99860.38
2022-12-01T01:10:53.632Z,99856.83
2022-12-01T01:13:24.409Z,99857.28
2022-12-01T01:16:01.863Z,99854.98
2022-12-01T01:18:33.177Z,99847.97
2022-12-01T01:21:06.092Z,99845.44
2022-12-01T01:23:37.111Z,99840.45
2022-12-01T01:26:09.535Z,99840.37
2022-12-01T01:28:41.831Z,99839.02
2022-12-01T01:31:15.481Z,99838.35
2022-12-01T01:33:46.439Z,99837.11
2022-12-01T01:36:18.838Z,99833.56
2022-12-01T01:38:51.589Z,99834.90
2022-12-01T01:41:23.253Z,99828.77
2022-12-01T01:43:56.168Z,99833.88
2022-12-01T01:46:29.107Z,99834.62
2022-12-01T01:49:02.612Z,99836.09
2022-12-01T01:51:38.042Z,99835.75
2022-12-01T01:54:15.604Z,99837.34
2022-12-01T01:56:48.537Z,99840.84
2022-12-01T01:59:21.778Z,99837.75
2022-12-01T02:02:03.103Z,99837.35
2022-12-01T02:04:34.474Z,99837.13
2022-12-01T02:07:06.044Z,99835.65
2022-12-01T02:09:36.913Z,99833.56
2022-12-01T02:12:20.576Z,99828.39
2022-12-01T02:15:04.998Z,99835.91
2022-12-01T02:17:45.862Z,99842.01
2022-12-01T02:20:46.555Z,99843.52
2022-12-01T02:23:59.146Z,99847.16
2022-12-01T02:26:40.719Z,99844.91
2022-12-01T02:29:38.359Z,99842.46
2022-12-01T02:32:18.151Z,99835.41
2022-12-01T02:34:59.677Z,99831.96
2022-12-01T02:37:37.416Z,99829.66
2022-12-01T02:40:17.280Z,99834.23
2022-12-01T02:42:54.320Z,99834.83
2022-12-01T02:45:34.513Z,99836.52
2022-12-01T02:48:10.061Z,99837.96
2022-12-01T02:50:41.997Z,99838.11
2022-12-01T02:53:16.801Z,99835.68
2022-12-01T02:55:53.144Z,99838.71
2022-12-01T02:58:24.527Z,99840.63
2022-12-01T03:01:17.919Z,99837.21
2022-12-01T03:04:08.997Z,99833.76
2022-12-01T03:06:52.949Z,99830.83
2022-12-01T03:09:34.459Z,99827.70
2022-12-01T03:12:14.608Z,99825.69
2022-12-01T03:14:54.040Z,99827.54
2022-12-01T03:17:30.389Z,99827.83
2022-12-01T03:20:11.817Z,99823.06
2022-12-01T03:22:47.834Z,99818.28
2022-12-01T03:25:21.020Z,99822.52
2022-12-01T03:28:20.275Z,99824.44
2022-12-01T03:30:49.875Z,99826.31
2022-12-01T03:33:26.677Z,99822.60
2022-12-01T03:36:03.143Z,99820.23
2022-12-01T03:38:36.486Z,99821.52
2022-12-01T03:41:11.146Z,99821.96
2022-12-01T03:43:46.182Z,99822.50
2022-12-01T03:46:23.200Z,99819.58
2022-12-01T03:48:54.578Z,99819.71
2022-12-01T03:51:32.892Z,99820.67
2022-12-01T03:54:09.181Z,99821.36
2022-12-01T03:56:45.818Z,99812.39
2022-12-01T03:59:19.020Z,99815.09
2022-12-01T04:01:50.010Z,99815.48
2022-12-01T04:04:20.905Z,99813.17
2022-12-01T04:06:52.664Z,99810.20
2022-12-01T04:09:23.477Z,99816.29
2022-12-01T04:12:11.743Z,99818.34
2022-12-01T04:14:42.381Z,99819.99
2022-12-01T04:17:13.115Z,99818.57
2022-12-01T04:19:43.870Z,99822.89
2022-12-01T04:22:14.483Z,99820.95
2022-12-01T04:24:45.514Z,99824.77
2022-12-01T04:27:16.301Z,99824.08
2022-12-01T04:29:47.339Z,99826.17
2022-12-01T04:32:18.384Z,99824.24
2022-12-01T04:34:49.099Z,99821.31
2022-12-01T04:37:20.352Z,99817.02
2022-12-01T04:39:51.410Z,99825.35
2022-12-01T04:42:22.338Z,99816.17
2022-12-01T04:44:52.931Z,99819.00
2022-12-01T04:47:23.709Z,99815.63
2022-12-01T04:49:54.654Z,99810.58
2022-12-01T04:52:27.509Z,99815.75
2022-12-01T04:55:01.346Z,99819.15
2022-12-01T04:57:32.286Z,99820.70
2022-12-01T05:00:03.642Z,99819.17
2022-12-01T05:02:34.825Z,99818.36
2022-12-01T05:05:06.925Z,99813.84
2022-12-01T05:07:37.624Z,99815.30
2022-12-01T05:10:10.153Z,99813.80
2022-12-01T05:12:41.346Z,99816.80
2022-12-01T05:15:12.965Z,99820.06
2022-12-01T05:17:44.026Z,99817.88
2022-12-01T05:20:39.332Z,99814.79
2022-12-01T05:23:16.393Z,99814.10
2022-12-01T05:25:47.538Z,99813.70
2022-12-01T05:28:18.153Z,99813.36
2022-12-01T05:30:49.387Z,99815.68
2022-12-01T05:33:20.105Z,99819.98
2022-12-01T05:35:52.021Z,99818.88
2022-12-01T05:38:23.655Z,99822.01
2022-12-01T05:40:55.781Z,99822.44
2022-12-01T05:43:29.462Z,99825.55
2022-12-01T05:46:01.396Z,99828.54
2022-12-01T05:48:33.607Z,99831.20
2022-12-01T05:51:11.248Z,99831.66
2022-12-01T05:53:42.616Z,99836.44
2022-12-01T05:56:13.373Z,99838.70
2022-12-01T05:58:44.308Z,99840.98
2022-12-01T06:01:15.794Z,99843.00
2022-12-01T06:03:46.561Z,99843.73
2022-12-01T06:06:17.588Z,99848.55
2022-12-01T06:08:48.366Z,99847.98
2022-12-01T06:11:19.048Z,99847.16
2022-12-01T06:13:49.990Z,99845.04
2022-12-01T06:16:20.768Z,99848.90
2022-12-01T06:18:51.445Z,99847.71
2022-12-01T06:21:22.212Z,99849.09
2022-12-01T06:23:53.149Z,99847.36
2022-12-01T06:26:23.884Z,99849.09
2022-12-01T06:28:54.726Z,99851.66
2022-12-01T06:31:25.694Z,99854.98
2022-12-01T06:33:56.379Z,99854.66
2022-12-01T06:36:26.990Z,99857.17
2022-12-01T06:38:58.092Z,99858.49
2022-12-01T06:41:28.760Z,99859.30
2022-12-01T06:43:59.870Z,99859.64
2022-12-01T06:46:31.105Z,99869.10
2022-12-01T06:49:01.831Z,99868.59
2022-12-01T06:51:34.340Z,99868.25
2022-12-01T06:54:05.913Z,99865.85
2022-12-01T06:56:36.928Z,99871.34
2022-12-01T06:59:07.991Z,99869.86
2022-12-01T07:01:39.233Z,99873.24
2022-12-01T07:04:10.069Z,99874.39
2022-12-01T07:06:40.806Z,99873.69
2022-12-01T07:09:11.701Z,99874.10
2022-12-01T07:11:42.433Z,99876.42
2022-12-01T07:14:21.321Z,99880.70
2022-12-01T07:16:52.380Z,99882.00
2022-12-01T07:19:23.146Z,99884.98
2022-12-01T07:21:54.039Z,99888.48
2022-12-01T07:24:24.705Z,99890.23
2022-12-01T07:26:55.543Z,99889.21
2022-12-01T07:29:26.248Z,99893.48
2022-12-01T07:31:56.901Z,99893.06
2022-12-01T07:34:27.609Z,99893.95
2022-12-01T07:36:58.562Z,99898.04
2022-12-01T07:39:29.301Z,99901.86
2022-12-01T07:42:00.037Z,99904.95
2022-12-01T07:44:30.690Z,99905.64
2022-12-01T07:47:01.580Z,99905.27
2022-12-01T07:49:32.357Z,99905.80
2022-12-01T07:52:02.989Z,99909.02
2022-12-01T07:54:33.651Z,99913.19
2022-12-01T07:57:05.057Z,99914.94
2022-12-01T07:59:35.761Z,99916.40
2022-12-01T08:02:06.794Z,99918.65
2022-12-01T08:04:37.906Z,99918.44
2022-12-01T08:07:08.643Z,99919.75
2022-12-01T08:09:39.800Z,99916.84
2022-12-01T08:12:10.582Z,99920.96
2022-12-01T08:14:41.469Z,99920.29
2022-12-01T08:17:12.139Z,99920.97
2022-12-01T08:19:42.850Z,99920.23
2022-12-01T08:22:13.592Z,99922.73
2022-12-01T08:24:44.321Z,99921.73
2022-12-01T08:27:15.208Z,99924.80
2022-12-01T08:29:46.368Z,99927.16
2022-12-01T08:32:18.071Z,99925.35
2022-12-01T08:34:53.476Z,99922.48
2022-12-01T08:37:24.396Z,99924.20
2022-12-01T08:39:55.198Z,99922.56
2022-12-01T08:42:26.100Z,99925.70
2022-12-01T08:44:56.804Z,99930.06
2022-12-01T08:47:28.432Z,99928.44
2022-12-01T08:49:59.374Z,99916.86
2022-12-01T08:52:34.717Z,99924.23
2022-12-01T08:55:06.186Z,99923.56
2022-12-01T08:57:36.961Z,99923.69
2022-12-01T09:00:09.708Z,99930.31
2022-12-01T09:02:40.451Z,99928.49
2022-12-01T09:05:12.340Z,99923.17
2022-12-01T09:07:45.690Z,99922.77
2022-12-01T09:10:16.863Z,99927.84
2022-12-01T09:12:47.520Z,99925.77
2022-12-01T09:15:18.421Z,99919.61
2022-12-01T09:17:49.325Z,99918.23
2022-12-01T09:20:20.010Z,99918.42
2022-12-01T09:22:50.845Z,99918.69
2022-12-01T09:25:21.584Z,99916.07
2022-12-01T09:27:52.621Z,99920.85
2022-12-01T09:30:24.106Z,99915.13
2022-12-01T09:32:54.759Z,99921.90
2022-12-01T09:35:25.421Z,99924.88
2022-12-01T09:37:56.056Z,99925.61
2022-12-01T09:40:31.952Z,99923.68
2022-12-01T09:43:05.742Z,99926.66
2022-12-01T09:45:37.812Z,99923.04
2022-12-01T09:48:15.802Z,99927.73
2022-12-01T09:50:46.763Z,99924.38
2022-12-01T09:53:23.897Z,99921.48
2022-12-01T09:55:56.714Z,99921.98
2022-12-01T09:58:33.590Z,99922.46
2022-12-01T10:01:05.010Z,99920.79
2022-12-01T10:03:45.615Z,99912.11
2022-12-01T10:06:28.760Z,99905.55
2022-12-01T10:09:12.823Z,99903.98
2022-12-01T10:11:46.901Z,99903.78
2022-12-01T10:14:20.665Z,99898.81
2022-12-01T10:17:00.971Z,99900.45
2022-12-01T10:19:39.166Z,99900.02
2022-12-01T10:22:36.207Z,99901.64
2022-12-01T10:25:21.484Z,99905.09
2022-12-01T10:28:05.826Z,99893.30
2022-12-01T10:30:42.264Z,99894.91
2022-12-01T10:33:23.873Z,99891.99
2022-12-01T10:35:54.926Z,99878.56
2022-12-01T10:38:29.638Z,99874.77
2022-12-01T10:41:02.728Z,99883.27
2022-12-01T10:43:50.191Z,99879.72
2022-12-01T10:46:25.581Z,99874.52
2022-12-01T10:48:58.507Z,99871.93
2022-12-01T10:51:30.019Z,99870.48
2022-12-01T10:54:11.738Z,99866.11
2022-12-01T10:56:45.479Z,99863.54
2022-12-01T10:59:35.495Z,99860.71
2022-12-01T11:02:17.212Z,99862.67
2022-12-01T11:04:55.399Z,99863.39
2022-12-01T11:07:28.858Z,99862.38
2022-12-01T11:10:14.316Z,99858.10
2022-12-01T11:12:46.901Z,99861.73
2022-12-01T11:15:25.597Z,99862.28
2022-12-01T11:18:02.402Z,99856.98
2022-12-01T11:20:38.715Z,99852.64
2022-12-01T11:23:26.910Z,99849.46
2022-12-01T11:26:04.634Z,99849.08
2022-12-01T11:28:36.749Z,99847.61
2022-12-01T11:31:09.636Z,99842.13
2022-12-01T11:33:47.945Z,99842.81
2022-12-01T11:36:30.372Z,99837.17
2022-12-01T11:39:03.836Z,99841.52
2022-12-01T11:41:38.162Z,99844.99
2022-12-01T11:47:25.447Z,99848.13
2022-12-01T11:49:59.047Z,99848.41
2022-12-01T11:52:32.892Z,99847.83
2022-12-01T11:55:20.966Z,99845.63
2022-12-01T11:57:54.324Z,99849.86
2022-12-01T12:00:27.571Z,99848.42
2022-12-01T12:03:15.303Z,99847.02
2022-12-01T12:06:39.460Z,99847.23
2022-12-01T12:09:24.069Z,99841.89
2022-12-01T12:12:03.914Z,99840.14
2022-12-01T12:14:40.578Z,99835.09
2022-12-01T12:17:48.428Z,99835.41
2022-12-01T12:20:35.038Z,99835.62
2022-12-01T12:23:24.767Z,99832.54
2022-12-01T12:26:05.793Z,99831.70
2022-12-01T12:28:47.730Z,99827.52
2022-12-01T12:31:29.445Z,99829.74
2022-12-01T12:34:23.340Z,99828.48
2022-12-01T12:37:08.283Z,99829.52
2022-12-01T12:40:10.020Z,99834.34
2022-12-01T12:42:52.745Z,99832.21
2022-12-01T12:45:32.987Z,99831.02
2022-12-01T12:48:21.795Z,99835.33
2022-12-01T12:51:02.630Z,99838.14
2022-12-01T12:53:39.776Z,99836.89
2022-12-01T12:56:15.683Z,99834.07
2022-12-01T12:58:56.919Z,99834.06
2022-12-01T13:01:31.876Z,99835.63
2022-12-01T13:04:06.294Z,99839.66
2022-12-01T13:06:42.894Z,99840.69
2022-12-01T13:09:16.607Z,99841.77
2022-12-01T13:11:54.167Z,99845.77
2022-12-01T13:14:30.800Z,99843.58
2022-12-01T13:17:07.746Z,99840.30
2022-12-01T13:19:41.671Z,99837.77
2022-12-01T13:22:16.299Z,99837.38
2022-12-01T13:24:47.509Z,99835.59
2022-12-01T13:27:21.993Z,99841.68
2022-12-01T13:29:55.468Z,99838.89
2022-12-01T13:32:37.028Z,99839.21
2022-12-01T13:35:23.452Z,99836.81
2022-12-01T13:37:54.772Z,99843.35
2022-12-01T13:40:29.494Z,99839.42
2022-12-01T13:43:10.397Z,99839.59
2022-12-01T13:45:43.394Z,99837.70
2022-12-01T13:48:50.193Z,99837.56
2022-12-01T13:51:21.155Z,99844.17
2022-12-01T13:54:29.243Z,99846.70
2022-12-01T13:57:12.086Z,99849.70
2022-12-01T14:00:24.528Z,99852.95
2022-12-01T14:03:34.258Z,99855.22
2022-12-01T14:06:26.748Z,99852.59
2022-12-01T14:09:02.525Z,99861.21
2022-12-01T14:11:35.912Z,99859.98
2022-12-01T14:14:22.744Z,99857.33
2022-12-01T14:16:59.042Z,99857.86
2022-12-01T14:19:38.157Z,99855.14
2022-12-01T14:22:32.421Z,99855.55
2022-12-01T14:25:05.464Z,99853.48
2022-12-01T14:27:42.621Z,99856.04
2022-12-01T14:31:02.908Z,99857.60
2022-12-01T14:33:59.397Z,99857.51
2022-12-01T14:36:40.674Z,99856.52
2022-12-01T14:39:20.129Z,99852.27
2022-12-01T14:41:55.387Z,99854.20
2022-12-01T14:44:31.830Z,99860.24
2022-12-01T14:47:16.003Z,99858.70
2022-12-01T14:49:52.330Z,99860.02
2022-12-01T14:52:32.176Z,99860.46
2022-12-01T14:55:04.040Z,99860.60
2022-12-01T14:57:39.876Z,99865.21
2022-12-01T15:00:17.505Z,99868.16
2022-12-01T15:02:54.365Z,99867.83
2022-12-01T15:05:28.333Z,99867.45
2022-12-01T15:08:25.647Z,99867.20
2022-12-01T15:10:56.874Z,99860.09
2022-12-01T15:13:30.909Z,99859.46
2022-12-01T15:16:04.287Z,99860.60
2022-12-01T15:18:37.856Z,99862.88
2022-12-01T15:21:12.078Z,99862.06
2022-12-01T15:23:58.133Z,99861.33
2022-12-01T15:26:31.488Z,99857.24
2022-12-01T15:29:16.539Z,99861.95
2022-12-01T15:31:50.662Z,99861.69
2022-12-01T15:34:25.001Z,99861.73
2022-12-01T15:36:56.583Z,99869.56
2022-12-01T15:39:34.044Z,99866.14
2022-12-01T15:42:05.937Z,99862.83
2022-12-01T15:44:38.144Z,99865.52
2022-12-01T15:47:37.536Z,99864.05
2022-12-01T15:52:47.599Z,99867.17
2022-12-01T15:55:29.543Z,99863.70
2022-12-01T15:58:01.370Z,99857.41
2022-12-01T16:00:32.310Z,99856.48
2022-12-01T16:03:04.035Z,99856.78
2022-12-01T16:05:37.800Z,99858.80
2022-12-01T16:08:16.366Z,99859.80
2022-12-01T16:10:48.280Z,99860.56
2022-12-01T16:13:44.739Z,99861.77
2022-12-01T16:16:32.147Z,99858.98
2022-12-01T16:19:05.888Z,99861.64
2022-12-01T16:21:43.098Z,99861.23
2022-12-01T16:24:18.502Z,99865.95
2022-12-01T16:26:55.067Z,99864.23
2022-12-01T16:29:27.617Z,99867.16
2022-12-01T16:32:20.237Z,99871.02
2022-12-01T16:34:54.459Z,99875.48
2022-12-01T16:37:25.752Z,99876.06
2022-12-01T16:39:57.486Z,99873.12
2022-12-01T16:42:28.625Z,99871.63
2022-12-01T16:44:59.632Z,99868.82
2022-12-01T16:47:34.297Z,99879.58
2022-12-01T16:50:05.822Z,99875.86
2022-12-01T16:52:45.749Z,99879.98
2022-12-01T16:55:27.794Z,99881.14
2022-12-01T16:57:58.692Z,99879.27
2022-12-01T17:00:30.327Z,99872.15
2022-12-01T17:03:01.624Z,99872.41
2022-12-01T17:05:33.161Z,99873.91
2022-12-01T17:08:04.216Z,99871.13
2022-12-01T17:10:35.398Z,99874.95
2022-12-01T17:13:06.435Z,99874.42
2022-12-01T17:15:41.420Z,99877.46
2022-12-01T17:18:13.283Z,99873.72
2022-12-01T17:20:44.817Z,99870.88
2022-12-01T17:23:15.868Z,99869.04
2022-12-01T17:25:46.995Z,99869.56
2022-12-01T17:28:18.031Z,99871.59
2022-12-01T17:30:49.714Z,99867.40
2022-12-01T17:33:21.121Z,99865.21
2022-12-01T17:35:52.415Z,99865.66
2022-12-01T17:38:23.232Z,99869.61
2022-12-01T17:41:05.194Z,99864.42
2022-12-01T17:43:37.644Z,99866.06
2022-12-01T17:46:10.697Z,99864.75
2022-12-01T17:48:43.352Z,99867.45
2022-12-01T17:51:15.454Z,99867.60
2022-12-01T17:53:46.595Z,99869.60
2022-12-01T17:56:18.842Z,99868.98
2022-12-01T17:58:51.705Z,99867.80
2022-12-01T18:01:29.779Z,99863.35
2022-12-01T18:04:01.525Z,99865.66
2022-12-01T18:06:32.763Z,99863.14
2022-12-01T18:09:04.384Z,99865.55
2022-12-01T18:11:36.086Z,99866.64
2022-12-01T18:14:07.557Z,99859.37
2022-12-01T18:16:38.830Z,99855.92
2022-12-01T18:19:10.226Z,99851.90
2022-12-01T18:21:42.003Z,99853.14
2022-12-01T18:24:13.295Z,99853.08
2022-12-01T18:26:44.416Z,99850.72
2022-12-01T18:29:18.550Z,99850.65
2022-12-01T18:31:49.719Z,99852.34
2022-12-01T18:34:20.924Z,99855.46
2022-12-01T18:36:52.473Z,99857.41
2022-12-01T18:39:24.095Z,99857.62
2022-12-01T18:41:55.511Z,99859.79
2022-12-01T18:44:26.445Z,99863.73
2022-12-01T18:46:59.157Z,99862.12
2022-12-01T18:49:30.225Z,99866.24
2022-12-01T18:52:03.340Z,99863.88
2022-12-01T18:54:35.828Z,99860.94
2022-12-01T18:57:06.975Z,99857.73
2022-12-01T18:59:37.731Z,99856.09
2022-12-01T19:02:09.297Z,99857.91
2022-12-01T19:04:40.561Z,99854.75
2022-12-01T19:07:11.968Z,99854.99
2022-12-01T19:09:43.464Z,99858.95
2022-12-01T19:12:14.368Z,99859.81
2022-12-01T19:14:45.413Z,99854.37
2022-12-01T19:17:16.867Z,99847.09
2022-12-01T19:19:48.114Z,99845.45
2022-12-01T19:22:19.200Z,99847.17
2022-12-01T19:24:50.844Z,99848.83
2022-12-01T19:27:22.202Z,99850.96
2022-12-01T19:29:54.091Z,99853.64
2022-12-01T19:32:25.864Z,99852.73
2022-12-01T19:34:57.144Z,99851.52
2022-12-01T19:37:28.068Z,99855.32
2022-12-01T19:39:59.195Z,99858.79
2022-12-01T19:42:30.415Z,99860.39
2022-12-01T19:45:01.634Z,99858.98
2022-12-01T19:47:36.772Z,99861.87
2022-12-01T19:50:09.297Z,99859.67
2022-12-01T19:52:41.571Z,99862.95
2022-12-01T19:55:13.396Z,99860.74
2022-12-01T19:57:44.461Z,99861.79
2022-12-01T20:00:17.524Z,99860.12
2022-12-01T20:02:48.640Z,99862.05
2022-12-01T20:05:20.683Z,99860.88
2022-12-01T20:07:52.029Z,99863.15
2022-12-01T20:10:23.677Z,99864.73
2022-12-01T20:12:55.429Z,99864.79
2022-12-01T20:15:26.481Z,99864.39
2022-12-01T20:17:58.211Z,99869.11
2022-12-01T20:20:29.420Z,99868.63
2022-12-01T20:23:00.570Z,99872.48
2022-12-01T20:25:33.543Z,99870.05
2022-12-01T20:28:04.834Z,99869.68
2022-12-01T20:30:40.191Z,99871.76
2022-12-01T20:33:11.392Z,99871.14
2022-12-01T20:35:43.833Z,99872.73
2022-12-01T20:38:15.026Z,99871.12
2022-12-01T20:40:46.084Z,99863.80
2022-12-01T20:43:17.258Z,99857.95
2022-12-01T20:45:50.590Z,99850.63
2022-12-01T20:48:21.692Z,99855.77
2022-12-01T20:50:52.746Z,99857.36
2022-12-01T20:53:24.004Z,99859.38
2022-12-01T20:55:55.762Z,99852.48
2022-12-01T20:58:26.706Z,99855.09
2022-12-01T21:00:57.662Z,99856.47
2022-12-01T21:03:28.697Z,99859.48
2022-12-01T21:06:01.934Z,99861.41
2022-12-01T21:08:33.107Z,99852.89
2022-12-01T21:11:07.282Z,99856.25
2022-12-01T21:13:42.403Z,99857.14
2022-12-01T21:16:23.459Z,99851.73
2022-12-01T21:18:59.968Z,99858.96
2022-12-01T21:21:32.322Z,99856.06
2022-12-01T21:24:14.942Z,99852.09
2022-12-01T21:26:49.744Z,99849.19
2022-12-01T21:29:25.011Z,99847.98
2022-12-01T21:32:00.129Z,99849.60
2022-12-01T21:34:35.119Z,99851.73
2022-12-01T21:37:12.317Z,99847.45
2022-12-01T21:39:43.182Z,99851.34
2022-12-01T21:42:19.272Z,99853.86
2022-12-01T21:44:51.001Z,99852.62
2022-12-01T21:47:23.482Z,99853.23
2022-12-01T21:49:55.852Z,99856.76
2022-12-01T21:52:31.893Z,99849.95
2022-12-01T21:55:10.396Z,99851.89
2022-12-01T21:57:45.077Z,99855.09
2022-12-01T22:00:33.348Z,99847.54
2022-12-01T22:03:31.374Z,99844.39
2022-12-01T22:06:28.734Z,99840.73
2022-12-01T22:08:59.456Z,99838.43
2022-12-01T22:11:32.249Z,99837.14
2022-12-01T22:14:14.006Z,99835.30
2022-12-01T22:16:46.576Z,99834.68
2022-12-01T22:19:38.618Z,99834.52
2022-12-01T22:22:25.892Z,99825.57
2022-12-01T22:25:00.726Z,99816.80
2022-12-01T22:27:33.555Z,99817.20
2022-12-01T22:30:16.981Z,99812.54
2022-12-01T22:32:56.385Z,99805.52
2022-12-01T22:35:35.828Z,99803.57
2022-12-01T22:38:36.994Z,99810.66
2022-12-01T22:41:12.816Z,99811.58
2022-12-01T22:43:47.884Z,99814.23
2022-12-01T22:46:32.684Z,99813.34
2022-12-01T22:49:22.410Z,99814.35
2022-12-01T22:51:58.139Z,99816.66
2022-12-01T22:54:38.734Z,99813.02
2022-12-01T22:57:33.185Z,99809.26
2022-12-01T23:00:16.952Z,99807.77
2022-12-01T23:02:50.812Z,99809.35
2022-12-01T23:05:25.629Z,99811.77
2022-12-01T23:07:57.568Z,99812.28
2022-12-01T23:10:32.364Z,99808.20
2022-12-01T23:13:14.055Z,99808.40
2022-12-01T23:15:47.917Z,99803.63
2022-12-01T23:18:22.292Z,99797.23
2022-12-01T23:20:54.965Z,99797.48
2022-12-01T23:23:30.165Z,99796.16
2022-12-01T23:26:02.511Z,99795.35
2022-12-01T23:28:34.034Z,99792.80
2022-12-01T23:31:04.935Z,99794.29
2022-12-01T23:33:36.948Z,99793.38
2022-12-01T23:36:16.718Z,99795.38
2022-12-01T23:38:49.509Z,99791.20
2022-12-01T23:41:25.632Z,99794.23
2022-12-01T23:44:02.511Z,99793.08
2022-12-01T23:46:35.230Z,99791.72
2022-12-01T23:49:10.672Z,99798.14
2022-12-01T23:51:45.368Z,99797.36
2022-12-01T23:54:20.607Z,99789.31
2022-12-01T23:56:56.010Z,99796.96
2022-12-01T23:59:28.570Z,99788.77
